David Nieto

Chefscout - Deportivo La Coruña
5 Dez 2027
Sonntag
Verarbeitung

Persönlichkeit

Anpassungsfähigkeit (18) Ehrgeiz (17) Kontroverse (5) Loyalität (19) Druck (1) Professionalität (6) Fairness (2) Temperament (12)

Profil

Trainerstil Demokratisch
Lizenz Nationale B
Entschlossenheit 12
Menschenführung 5
Motivation 6
Disziplin 6
Arbeitszufriedenheit
100%
Ermüdung
0%
Rolle Chefscout
Gehalt 31.2K p/W
Vertrag 14.03.2030

Leistung

Verhalten Gut
Trainingseffektivität
38%
Spielerentwicklung
45%
Verletzungsprävention
35%
Taktische Umsetzung
55%

Letzte Ereignisse

Nahm an einer Scouting-Besprechung teil jetzt
Nahm an einer Scouting-Besprechung teil 7T her
Nahm an einer Scouting-Besprechung teil 7T her
Spiel beobachtet 7T her
Nahm an einer Scouting-Besprechung teil 14T her
Spieler begutachtet 14T her
Spieler begutachtet 14T her
Spiel beobachtet 14T her

Aktuell beobachtet

177
Spieler Verein Status Fähigkeit Vertrauen Beobachtet Zuletzt beobachtet Letzte Stimme
Honest Ahanor Atalanta Aktiv 133 / 142 40% 1 18.11.2027 -
Edmilson Herazo Cortulua Aktiv 86 / 103 40% 1 18.11.2027 -
Estanislao López Colón Aktiv 97 / 100 40% 2 17.11.2027 -
Lewis Miley Leicester City Aktiv 156 / 155 40% 1 17.11.2027 -
Ramiro Pedroza San Lorenzo Aktiv 88 / 93 40% 1 17.11.2027 -
Máximo Munarriz San Telmo Aktiv 98 / 100 40% 1 05.11.2027 -
Gideon Manaseh Ikorodu City Aktiv 101 / 101 40% 1 05.11.2027 -
Juan Manuel Villalba Tigre Aktiv 116 / 132 40% 1 02.11.2027 -
Dylan Gorosito Boca Juniors Aktiv 105 / 118 40% 1 02.11.2027 -
Ramiro Luján Boca Juniors Aktiv 89 / 101 40% 1 21.10.2027 -
Nazareno Roselli Defensa y Justicia Aktiv 113 / 120 40% 1 21.10.2027 -
Ignacio Fernández Boston River Aktiv 85 / 105 40% 1 21.10.2027 -
Agustín Obregón River Plate Aktiv 114 / 116 40% 3 19.10.2027 -
Pau Cubarsí Racing Santander Aktiv 153 / 158 40% 2 19.10.2027 -
Juan Morán Godoy Cruz Aktiv 114 / 116 40% 1 19.10.2027 -
Joel Ezra Enyimba Aktiv 89 / 98 40% 1 17.10.2027 -
Nahuel Leivas Montevideo City Torque Aktiv 108 / 107 40% 1 17.10.2027 -
Marcos López Banfield Aktiv 94 / 106 40% 4 15.10.2027 -
Máximo Magnoli Ferro Carril Oeste Aktiv 93 / 101 40% 1 15.10.2027 -
Olaniyi Saheed Kwara United Aktiv 83 / 105 40% 1 15.10.2027 -
Alejo Fernández Temperley Aktiv 91 / 112 40% 2 14.10.2027 -
Francisco Lencinas Patronato Aktiv 92 / 115 40% 2 12.10.2027 -
Maximiliano Soria River Plate Aktiv 92 / 103 40% 1 12.10.2027 -
Adrian Skogmar Malmo FF Aktiv 110 / 112 40% 1 12.10.2027 -
Andrés Cuenca Como Aktiv 112 / 113 40% 1 11.10.2027 -
Agustín Méndez Belgrano Aktiv 101 / 112 40% 1 11.10.2027 -
Axel Tape Bayer Leverkusen Aktiv 136 / 136 40% 1 11.10.2027 -
Felipe Obradovich Lanús Aktiv 106 / 113 40% 4 09.10.2027 -
Felipe Schaare Racing Club Aktiv 100 / 100 40% 2 07.10.2027 -
Matías Gómez Talleres Aktiv 109 / 117 40% 2 07.10.2027 -
Sebastián Arancibia O'Higgins Aktiv 108 / 106 40% 1 06.10.2027 -
Vitor Reis Manchester City Aktiv 135 / 140 40% 1 06.10.2027 -
Diego Cheuquepal Racing Aktiv 99 / 112 40% 1 05.10.2027 -
Bautista González Independiente Aktiv 95 / 108 40% 1 05.10.2027 -
Sebastián Flores Ferro Carril Oeste Aktiv 104 / 114 40% 3 04.10.2027 -
Lucio Valdez Vélez Aktiv 98 / 104 40% 1 04.10.2027 -
Inti Borghetto Patronato Aktiv 94 / 98 40% 1 04.10.2027 -
Matías Magdaleno Estudiantes Aktiv 97 / 106 40% 1 07.09.2027 -
Nicolás Blanco San Lorenzo Aktiv 92 / 106 40% 1 07.09.2027 -
Teo Rodríguez Pagano San Lorenzo Verhandlung 117 / 128 40% 2 30.08.2027 -
Hosea Michael Remo Stars Aktiv 81 / 82 40% 1 30.08.2027 -
Leandro Aldeco Vélez Aktiv 94 / 98 40% 1 30.08.2027 -
Agustín Gálvez Atlético Tucumán Aktiv 97 / 110 40% 1 23.08.2027 -
Alejandro Leiva Patronato Aktiv 100 / 106 40% 2 16.08.2027 -
Lennon Miller AC Milan Aktiv 139 / 138 40% 1 16.08.2027 -
Sebastián Ramírez America de Cali Aktiv 109 / 117 40% 1 16.08.2027 -
Pablo Santiago Castellón Verloren 131 / 117 65% 1 28.06.2027 -
Pape Diong Westerlo Aktiv 111 / 118 40% 2 01.06.2027 -
Riley Owen Peterborough United Aktiv 102 / 103 40% 2 01.06.2027 -
Mao Hosoya Anderlecht Verhandlung 134 / 135 67% 1 01.06.2027 -
Juanlu Bournemouth Aktiv 145 / 148 40% 11 29.05.2027 -
Mirko Bruno Vélez Aktiv 105 / 104 40% 2 29.05.2027 -
Karim Coulibaly RC Strasbourg Aktiv 119 / 132 40% 1 29.05.2027 -
Octavio Ontivero Lanús Aktiv 103 / 113 40% 3 27.05.2027 -
Leonardo Mendicino Bari Aktiv 107 / 124 40% 1 27.05.2027 -
Rhys Chadwick Burton Albion Aktiv 99 / 99 40% 1 27.05.2027 -
Pau Navarro Villarreal Aktiv 151 / 142 40% 4 26.05.2027 -
Daijiro Chirino Almería Aktiv 133 / 137 40% 4 26.05.2027 -
Sondre Langås Derby County Aktiv 133 / 132 40% 1 26.05.2027 -
Caleb Yirenkyi Coventry City Aktiv 127 / 142 40% 2 25.05.2027 -
Ilaix Moriba Celta Aktiv 140 / 152 40% 1 23.05.2027 -
Tim Iroegbunam Hull City Aktiv 130 / 137 40% 1 22.05.2027 -
Florentino Luís Ipswich Town Aktiv 137 / 140 40% 2 21.05.2027 -
Manuel Salcedo Tigres Aktiv 122 / 119 40% 3 21.05.2027 -
Harrison Armstrong Hull City Aktiv 120 / 132 40% 2 21.05.2027 -
Yasin Ayari Brighton Aktiv 144 / 152 40% 3 21.05.2027 -
Ryan Sessegnon Fulham Aktiv 145 / 144 40% 1 21.05.2027 -
Ethan Galbraith Swansea City Aktiv 140 / 138 40% 4 18.05.2027 -
Éderson Atalanta Aktiv 153 / 159 40% 3 18.05.2027 -
Pablo Ramón Racing Santander Aktiv 132 / 126 40% 1 18.05.2027 -
Jacob Greaves Ipswich Town Aktiv 144 / 130 40% 3 17.05.2027 -
Bojan Kovačević Cádiz Aktiv 140 / 125 40% 3 17.05.2027 -
Hans Nicolussi Caviglia Parma Aktiv 127 / 141 40% 1 17.05.2027 -
Alex Scott Bournemouth Aktiv 148 / 160 40% 2 16.05.2027 -
Habib Diarra Sunderland Aktiv 146 / 138 40% 2 15.05.2027 -
Beñat Prados Málaga Aktiv 148 / 147 40% 4 14.05.2027 -
Marvin Park Las Palmas Aktiv 132 / 124 40% 1 14.05.2027 -
Ayrton Costa Getafe Aktiv 123 / 141 40% 3 13.05.2027 -
André Wolverhampton Aktiv 140 / 149 40% 2 13.05.2027 -
Alejandro Francés Girona Aktiv 132 / 130 40% 6 12.05.2027 -
Bobby Thomas Coventry City Aktiv 140 / 133 40% 2 12.05.2027 -
Tom Atcheson Crewe Alexandra Aktiv 104 / 123 40% 1 12.05.2027 -
Buba Sangaré Gijón Aktiv 124 / 128 40% 1 12.05.2027 -
Luke McNally Bristol City Aktiv 132 / 122 40% 2 09.05.2027 -
Aidan Morris Middlesbrough Aktiv 132 / 129 40% 1 09.05.2027 -
Federico Navarro Rosario Central Aktiv 134 / 122 40% 1 09.05.2027 -
Omar El Hilali Espanyol Aktiv 156 / 141 40% 7 08.05.2027 -
Brooke Norton-Cuffy Hull City Aktiv 131 / 130 40% 3 07.05.2027 -
Tariq Lamptey Queens Park Rangers Aktiv 130 / 137 40% 1 07.05.2027 -
Flavien-Enzo Boyomo Osasuna Aktiv 153 / 155 40% 4 06.05.2027 -
Kevin Lomónaco Elche Aktiv 126 / 127 40% 2 06.05.2027 -
Álex Valle Como Aktiv 129 / 129 40% 2 06.05.2027 -
Máximo Perrone Como Aktiv 137 / 142 40% 1 05.05.2027 -
Ngal'Ayel Mukau LOSC Lille Aktiv 137 / 141 40% 1 05.05.2027 -
Isma Ruiz Córdoba Aktiv 123 / 133 40% 3 03.05.2027 -
Víctor Chust Elche Aktiv 134 / 124 40% 1 03.05.2027 -
Luc François Tours Aktiv 160 / 166 40% 2 02.05.2027 -
Yussif Saidu Zaragoza Aktiv 118 / 127 40% 1 02.05.2027 -
Aaron Hickey Brentford Aktiv 140 / 139 40% 5 30.04.2027 -
Rodrigo Pinheiro Famalicao Aktiv 132 / 137 40% 1 30.04.2027 -
Hugo Guillamón Gijón Aktiv 122 / 132 40% 3 28.04.2027 -
Ronwen Vilakazi Ajax Cape Town Aktiv 84 / 92 40% 1 26.04.2027 -
Luther Kekana SuperSport United Aktiv 96 / 94 40% 1 26.04.2027 -
Samuel Lucero Defensa y Justicia Aktiv 118 / 127 40% 2 25.04.2027 -
Valentino Massi Sarmiento Aktiv 103 / 109 40% 1 25.04.2027 -
Víctor Gómez Braga Aktiv 133 / 143 40% 3 21.04.2027 Beobachten
Ethan Ampadu Leeds United Aktiv 152 / 143 40% 3 20.04.2027 -
Samuele Angori Pisa Aktiv 134 / 140 40% 2 20.04.2027 -
Ben Nelson Leicester City Aktiv 126 / 126 40% 1 19.04.2027 -
Arnau Martínez Valencia Aktiv 148 / 147 40% 2 17.04.2027 -
Edoardo Bove Watford Aktiv 126 / 135 40% 1 16.04.2027 -
Caspar Jander Southampton Aktiv 133 / 123 40% 1 16.04.2027 -
Guille Rosas Gijón Aktiv 144 / 140 40% 2 15.04.2027 -
Ramón Terrats Getafe Aktiv 149 / 150 40% 1 15.04.2027 -
Bradley Locko Stade Brestois Aktiv 143 / 140 40% 1 13.04.2027 -
Christos Mouzakitis Hull City Aktiv 132 / 131 40% 1 13.04.2027 -
Agustín Medina Athletic Bilbao Aktiv 117 / 120 40% 1 13.04.2027 -
Juan Giménez Rayo Vallecano Aktiv 108 / 133 40% 1 13.04.2027 -
Yassine Khalifi Charleroi Aktiv 106 / 109 40% 1 12.04.2027 -
Lucas Bergvall Tottenham Aktiv 151 / 146 40% 1 12.04.2027 -
Milan van Ewijk Coventry City Aktiv 135 / 130 40% 1 10.04.2027 -
Yehor Yarmoliuk Brentford Aktiv 141 / 150 40% 3 09.04.2027 -
Welington Southampton Aktiv 137 / 120 40% 1 09.04.2027 -
Dinis Pinto Moreirense Aktiv 131 / 126 40% 1 06.04.2027 -
Jesús Orozco Chiquete Cruz Azul Aktiv 119 / 138 40% 1 05.04.2027 -
Issa Kaboré Wrexham Aktiv 137 / 136 40% 2 02.04.2027 -
Keane Lewis-Potter Brentford Aktiv 152 / 150 40% 1 02.04.2027 -
Christ Inao Oulaï Fiorentina Aktiv 129 / 144 40% 1 29.03.2027 -
Facundo Sanchez Lanús Aktiv 92 / 110 40% 1 29.03.2027 -
James Dornelly Peterborough United Aktiv 102 / 102 40% 1 29.03.2027 -
Jacques Ekomié Wrexham Aktiv 121 / 135 40% 1 26.03.2027 -
Ramón Juárez Club America Aktiv 126 / 132 40% 1 25.03.2027 -
Agustín Bustinduy Central Norte Aktiv 98 / 111 40% 1 25.03.2027 -
Luca Lipani Monopoli Aktiv 124 / 131 40% 1 24.03.2027 -
Juan Miranda Bologna Aktiv 139 / 145 40% 3 21.03.2027 -
Festy Ebosele Basaksehir Aktiv 144 / 116 40% 1 21.03.2027 -
António Silva Bournemouth Aktiv 150 / 138 40% 1 19.03.2027 -
Pol Lozano Espanyol Aktiv 141 / 130 40% 3 16.03.2027 -
Fidel Ambríz Guadalajara Aktiv 136 / 136 40% 1 16.03.2027 -
Bruno Méndez Toluca Aktiv 122 / 134 40% 1 14.03.2027 -
Jorge Mina Valencia Aktiv 140 / 153 40% 1 12.03.2027 -
Everardo López Toluca Aktiv 120 / 120 40% 1 12.03.2027 -
Celías Ingenthron Platense Aktiv 117 / 128 40% 2 11.03.2027 -
Taras Mykhavko Dynamo Kyiv Aktiv 126 / 118 40% 2 11.03.2027 -
David Ozoh Derby County Aktiv 129 / 125 40% 1 11.03.2027 -
Nico O'Reilly Manchester City Aktiv 157 / 163 40% 1 10.03.2027 -
Lucas Høgsberg RC Strasbourg Aktiv 136 / 136 40% 1 10.03.2027 -
João Fonseca Benfica Aktiv 105 / 104 40% 2 09.03.2027 -
Gonçalo Oliveira Benfica Aktiv 100 / 120 40% 1 09.03.2027 -
Japhet Tanganga Sheffield United Aktiv 129 / 133 40% 1 07.03.2027 -
Josh King Charlton Athletic Aktiv 131 / 138 40% 1 06.03.2027 -
Ignacio Campo Huracán Aktiv 106 / 100 40% 1 02.03.2027 -
Erik Lira Cruz Azul Aktiv 121 / 136 40% 3 27.02.2027 -
Nobel Mendy Hull City Aktiv 130 / 141 40% 1 26.02.2027 -
Víctor Guzmán Monterrey Aktiv 121 / 126 40% 1 21.02.2027 -
Adrián Bernabé Parma Aktiv 143 / 136 40% 1 16.02.2027 -
Javi Rodríguez Celta Aktiv 153 / 143 40% 1 15.02.2027 -
Brian Rodríguez Club America Aktiv 121 / 113 40% 1 25.01.2027 -
Haissem Hassan Bloemfontein Celtic Aktiv 122 / 135 40% 1 25.01.2027 -
Iliman N'Diaye Derby County Aktiv 152 / 154 40% 1 21.01.2027 -
Gonzalo Fulham Aktiv 151 / 152 40% 1 21.01.2027 -
Facundo Torres KAA Gent Verhandlung 135 / 135 90% 1 18.01.2027 -
Konstantin Tyukavin KV Mechelen Verhandlung 132 / 133 89% 1 01.01.2027 -
Toni Fruk Ipswich Town Verhandlung 132 / 133 66% 1 01.01.2027 -
Ignacio Perruzzi San Lorenzo Aktiv 118 / 121 40% 1 12.12.2026 -
Lautaro Quiroga Defensa y Justicia Aktiv 92 / 117 40% 2 11.12.2026 -
Santiago Daniele Chacarita Juniors Aktiv 98 / 100 40% 2 10.12.2026 -
Noah Sadiki Sunderland Aktiv 145 / 146 40% 1 07.12.2026 -
Demián Troya Platense Aktiv 98 / 102 40% 1 18.11.2026 -
Lucas Richarte Temperley Aktiv 103 / 102 40% 2 07.10.2026 -
Juan Segundo Miretti River Plate Aktiv 102 / 114 40% 2 08.09.2026 -
Máximo Palazzo Huracán Aktiv 101 / 105 40% 1 08.09.2026 -
Facundo González River Plate Aktiv 100 / 110 40% 1 07.09.2026 -
Juan Fernándes Pinto Almagro Aktiv 99 / 114 40% 1 01.09.2026 -
Enrique Almeida Cerro Largo Aktiv 101 / 104 40% 1 17.08.2026 -
Valentino Acuña Newell's Old Boys Aktiv 97 / 121 40% 1 12.08.2026 -
Luka Andrade Montevideo City Torque Aktiv 103 / 112 40% 1 10.08.2026 -